createdAt,value
2017-08-24T00:00:53.945Z,13.55
2017-08-24T00:03:21.606Z,13.81
2017-08-24T00:05:49.510Z,14.01
2017-08-24T00:08:17.176Z,13.71
2017-08-24T00:10:45.034Z,13.58
2017-08-24T00:13:12.878Z,13.92
2017-08-24T00:15:40.743Z,13.91
2017-08-24T00:18:08.439Z,14.12
2017-08-24T00:20:36.283Z,14.09
2017-08-24T00:23:03.860Z,14.01
2017-08-24T00:25:31.633Z,13.77
2017-08-24T00:27:59.483Z,13.50
2017-08-24T00:30:27.201Z,13.43
2017-08-24T00:32:55.192Z,13.65
2017-08-24T00:35:22.888Z,13.42
2017-08-24T00:37:50.758Z,13.36
2017-08-24T00:40:18.831Z,13.11
2017-08-24T00:42:46.653Z,12.82
2017-08-24T00:45:14.473Z,12.61
2017-08-24T00:47:42.296Z,12.80
2017-08-24T00:50:10.295Z,12.85
2017-08-24T00:52:38.026Z,12.67
2017-08-24T00:55:05.813Z,12.47
2017-08-24T00:57:33.655Z,12.32
2017-08-24T01:00:01.475Z,12.61
2017-08-24T01:02:29.427Z,12.42
2017-08-24T01:04:57.261Z,12.45
2017-08-24T01:07:24.957Z,12.29
2017-08-24T01:09:52.601Z,12.46
2017-08-24T01:12:20.461Z,12.59
2017-08-24T01:14:48.147Z,12.55
2017-08-24T01:17:15.791Z,12.50
2017-08-24T01:19:43.375Z,12.62
2017-08-24T01:22:11.322Z,12.86
2017-08-24T01:24:39.033Z,13.23
2017-08-24T01:27:06.736Z,13.44
2017-08-24T01:29:34.702Z,13.31
2017-08-24T01:32:02.396Z,13.44
2017-08-24T01:34:30.112Z,13.54
2017-08-24T01:36:57.709Z,13.30
2017-08-24T01:39:25.772Z,13.40
2017-08-24T01:41:53.636Z,12.98
2017-08-24T01:44:21.498Z,13.03
2017-08-24T01:46:57.145Z,13.23
2017-08-24T01:49:24.864Z,13.09
2017-08-24T01:51:52.702Z,13.24
2017-08-24T01:54:20.697Z,13.19
2017-08-24T01:56:48.282Z,12.86
2017-08-24T01:59:15.897Z,12.63
2017-08-24T02:01:43.897Z,12.86
2017-08-24T02:04:11.635Z,12.67
2017-08-24T02:06:39.296Z,12.36
2017-08-24T02:09:07.198Z,12.26
2017-08-24T02:11:35.214Z,13.00
2017-08-24T02:14:02.895Z,12.81
2017-08-24T02:16:30.766Z,12.60
2017-08-24T02:18:58.492Z,12.97
2017-08-24T02:21:26.293Z,13.09
2017-08-24T02:23:54.156Z,12.73
2017-08-24T02:26:21.817Z,12.59
2017-08-24T02:28:49.478Z,12.72
2017-08-24T02:31:17.497Z,13.23
2017-08-24T02:33:45.216Z,12.95
2017-08-24T02:36:12.873Z,12.77
2017-08-24T02:38:40.952Z,12.62
2017-08-24T02:41:08.942Z,12.81
2017-08-24T02:43:36.791Z,12.39
2017-08-24T02:46:04.699Z,12.11
2017-08-24T02:48:32.623Z,11.97
2017-08-24T02:51:00.270Z,12.25
2017-08-24T02:53:28.274Z,12.04
2017-08-24T02:55:56.009Z,12.43
2017-08-24T02:58:23.670Z,12.70
2017-08-24T03:00:51.723Z,12.31
2017-08-24T03:03:19.414Z,11.93
2017-08-24T03:05:47.259Z,12.26
2017-08-24T03:08:15.334Z,12.06
2017-08-24T03:10:43.005Z,11.89
2017-08-24T03:13:10.835Z,11.89
2017-08-24T03:15:38.702Z,11.79
2017-08-24T03:18:06.714Z,11.64
2017-08-24T03:20:34.437Z,11.92
2017-08-24T03:23:02.240Z,12.47
2017-08-24T03:25:32.569Z,12.45
2017-08-24T03:28:01.034Z,12.35
2017-08-24T03:30:32.245Z,12.35
2017-08-24T03:33:00.443Z,12.10
2017-08-24T03:35:28.137Z,12.03
2017-08-24T03:37:57.358Z,12.04
2017-08-24T03:40:25.089Z,12.25
2017-08-24T03:42:52.969Z,11.99
2017-08-24T03:45:20.833Z,11.90
2017-08-24T03:47:48.666Z,11.81
2017-08-24T03:50:16.535Z,11.78
2017-08-24T03:52:44.435Z,11.69
2017-08-24T03:55:12.091Z,11.67
2017-08-24T03:57:39.692Z,11.77
2017-08-24T04:00:07.418Z,12.55
2017-08-24T04:02:35.077Z,13.74
2017-08-24T04:05:03.581Z,15.25
2017-08-24T04:07:31.423Z,16.05
2017-08-24T04:09:59.266Z,16.94
2017-08-24T04:12:26.955Z,17.62
2017-08-24T04:14:54.978Z,18.24
2017-08-24T04:17:22.693Z,18.84
2017-08-24T04:19:50.341Z,19.30
2017-08-24T04:22:18.219Z,20.14
2017-08-24T04:24:46.072Z,20.71
2017-08-24T04:27:13.939Z,21.19
2017-08-24T04:29:41.757Z,21.27
2017-08-24T04:32:09.690Z,21.03
2017-08-24T04:34:37.537Z,21.39
2017-08-24T04:37:05.482Z,21.88
2017-08-24T04:39:33.401Z,22.35
2017-08-24T04:42:01.362Z,22.71
2017-08-24T04:44:29.231Z,22.50
2017-08-24T04:46:56.950Z,23.45
2017-08-24T04:49:24.966Z,23.54
2017-08-24T04:51:52.809Z,23.93
2017-08-24T04:54:20.676Z,24.04
2017-08-24T04:56:48.359Z,23.97
2017-08-24T04:59:16.359Z,23.91
2017-08-24T05:01:44.203Z,24.60
2017-08-24T05:04:11.918Z,24.95
2017-08-24T05:06:39.614Z,25.35
2017-08-24T05:09:07.427Z,25.95
2017-08-24T05:11:35.271Z,26.81
2017-08-24T05:14:03.017Z,28.11
2017-08-24T05:16:30.852Z,28.61
2017-08-24T05:18:58.718Z,28.73
2017-08-24T05:21:26.525Z,28.42
2017-08-24T05:23:54.331Z,29.16
2017-08-24T05:26:22.354Z,29.41
2017-08-24T05:28:50.341Z,29.38
2017-08-24T05:31:18.160Z,29.91
2017-08-24T05:33:46.018Z,30.03
2017-08-24T05:36:13.890Z,29.38
2017-08-24T05:38:41.757Z,29.42
2017-08-24T05:41:09.550Z,29.26
2017-08-24T05:43:37.616Z,30.13
2017-08-24T05:46:05.698Z,29.78
2017-08-24T05:48:33.550Z,29.93
2017-08-24T05:51:01.638Z,30.61
2017-08-24T05:53:29.684Z,30.91
2017-08-24T05:55:57.551Z,30.89
2017-08-24T05:58:25.369Z,31.75
2017-08-24T06:00:53.100Z,31.81
2017-08-24T06:03:20.952Z,31.52
2017-08-24T06:05:49.048Z,32.26
2017-08-24T06:08:16.705Z,32.29
2017-08-24T06:10:44.367Z,32.35
2017-08-24T06:13:12.236Z,33.48
2017-08-24T06:15:39.890Z,34.27
2017-08-24T06:18:07.730Z,34.36
2017-08-24T06:20:35.597Z,34.12
2017-08-24T06:23:03.465Z,34.35
2017-08-24T06:25:31.362Z,33.71
2017-08-24T06:27:59.231Z,33.09
2017-08-24T06:30:27.041Z,33.65
2017-08-24T06:32:54.970Z,34.29
2017-08-24T06:35:23.001Z,34.22
2017-08-24T06:37:50.820Z,33.72
2017-08-24T06:40:18.567Z,34.61
2017-08-24T06:42:46.626Z,34.98
2017-08-24T06:45:14.301Z,36.03
2017-08-24T06:47:42.165Z,36.59
2017-08-24T06:50:10.110Z,37.36
2017-08-24T06:52:37.944Z,37.30
2017-08-24T06:55:05.563Z,37.13
2017-08-24T06:57:33.430Z,37.12
2017-08-24T07:00:01.267Z,37.10
2017-08-24T07:02:29.088Z,36.96
2017-08-24T07:04:56.881Z,37.15
2017-08-24T07:07:24.681Z,36.79
2017-08-24T07:09:52.421Z,38.12
2017-08-24T07:12:20.230Z,37.52
2017-08-24T07:14:48.049Z,36.86
2017-08-24T07:17:15.732Z,36.23
2017-08-24T07:19:43.467Z,35.32
2017-08-24T07:22:11.176Z,34.12
2017-08-24T07:24:38.752Z,34.38
2017-08-24T07:27:06.789Z,33.89
2017-08-24T07:29:34.656Z,34.81
2017-08-24T07:32:02.524Z,35.40
2017-08-24T07:34:30.564Z,35.94
2017-08-24T07:36:58.391Z,35.37
2017-08-24T07:39:26.328Z,35.45
2017-08-24T07:41:54.009Z,35.90
2017-08-24T07:44:21.737Z,36.13
2017-08-24T07:46:49.540Z,36.89
2017-08-24T07:49:17.566Z,36.87
2017-08-24T07:51:45.389Z,36.78
2017-08-24T07:54:12.983Z,36.74
2017-08-24T07:56:40.795Z,35.96
2017-08-24T07:59:08.540Z,35.82
2017-08-24T08:01:36.381Z,36.38
2017-08-24T08:04:04.030Z,35.75
2017-08-24T08:06:31.864Z,35.39
2017-08-24T08:08:59.709Z,34.18
2017-08-24T08:11:27.799Z,35.05
2017-08-24T08:13:55.519Z,33.22
2017-08-24T08:16:23.541Z,33.96
2017-08-24T08:18:51.607Z,33.57
2017-08-24T08:21:19.323Z,33.64
2017-08-24T08:23:47.338Z,33.20
2017-08-24T08:26:15.412Z,34.31
2017-08-24T08:28:43.350Z,34.37
2017-08-24T08:31:11.145Z,34.80
2017-08-24T08:33:39.080Z,34.88
2017-08-24T08:36:06.922Z,35.78
2017-08-24T08:38:34.951Z,35.70
2017-08-24T08:41:02.959Z,34.78
2017-08-24T08:43:30.802Z,33.80
2017-08-24T08:45:58.551Z,33.62
2017-08-24T08:48:26.340Z,32.93
2017-08-24T08:50:54.154Z,33.16
2017-08-24T08:53:22.001Z,34.44
2017-08-24T08:55:49.958Z,34.70
2017-08-24T08:58:17.783Z,35.28
2017-08-24T09:00:45.615Z,33.95
2017-08-24T09:03:13.413Z,34.12
2017-08-24T09:05:41.357Z,34.00
2017-08-24T09:08:09.107Z,35.05
2017-08-24T09:10:36.767Z,36.19
2017-08-24T09:13:04.583Z,34.64
2017-08-24T09:15:32.427Z,34.64
2017-08-24T09:18:00.309Z,34.18
2017-08-24T09:20:27.965Z,34.57
2017-08-24T09:22:55.802Z,35.40
2017-08-24T09:25:23.495Z,34.09
2017-08-24T09:27:51.216Z,33.80
2017-08-24T09:30:19.244Z,32.60
2017-08-24T09:32:47.067Z,34.14
2017-08-24T09:35:14.937Z,34.18
2017-08-24T09:37:42.625Z,33.44
2017-08-24T09:40:10.703Z,33.18
2017-08-24T09:42:38.774Z,34.45
2017-08-24T09:45:06.638Z,35.45
2017-08-24T09:47:34.503Z,34.18
2017-08-24T09:50:02.216Z,34.51
2017-08-24T09:52:30.037Z,34.76
2017-08-24T09:54:57.806Z,35.86
2017-08-24T09:57:25.564Z,35.69
2017-08-24T09:59:53.415Z,34.59
2017-08-24T10:02:21.405Z,35.84
2017-08-24T10:04:49.372Z,33.78
2017-08-24T10:07:17.237Z,34.92
2017-08-24T10:09:45.305Z,35.87
2017-08-24T10:12:12.970Z,35.63
2017-08-24T10:14:40.992Z,35.98
2017-08-24T10:17:08.704Z,36.01
2017-08-24T10:19:36.552Z,36.84
2017-08-24T10:22:04.419Z,36.43
2017-08-24T10:24:32.287Z,36.29
2017-08-24T10:27:00.153Z,36.26
2017-08-24T10:29:28.076Z,35.04
2017-08-24T10:31:56.114Z,35.60
2017-08-24T10:34:23.697Z,34.12
2017-08-24T10:36:51.500Z,34.90
2017-08-24T10:39:19.362Z,34.39
2017-08-24T10:41:47.376Z,35.04
2017-08-24T10:44:15.225Z,35.61
2017-08-24T10:46:42.907Z,36.02
2017-08-24T10:49:10.758Z,35.62
2017-08-24T10:51:38.608Z,35.96
2017-08-24T10:54:06.623Z,34.26
2017-08-24T10:56:34.562Z,34.49
2017-08-24T10:59:02.230Z,35.92
2017-08-24T11:01:29.901Z,36.70
2017-08-24T11:03:57.642Z,35.92
2017-08-24T11:06:25.429Z,34.48
2017-08-24T11:08:53.329Z,34.97
2017-08-24T11:11:22.188Z,35.78
2017-08-24T11:13:50.034Z,36.00
2017-08-24T11:16:17.976Z,36.36
2017-08-24T11:18:45.599Z,36.96
2017-08-24T11:21:13.314Z,37.72
2017-08-24T11:23:41.318Z,36.31
2017-08-24T11:26:09.170Z,35.57
2017-08-24T11:28:37.037Z,35.13
2017-08-24T11:31:04.882Z,35.42
2017-08-24T11:33:32.694Z,35.60
2017-08-24T11:36:00.307Z,35.91
2017-08-24T11:38:28.131Z,36.50
2017-08-24T11:40:55.951Z,37.32
2017-08-24T11:43:23.918Z,34.93
2017-08-24T11:45:51.809Z,36.43
2017-08-24T11:48:19.676Z,36.13
2017-08-24T11:50:47.543Z,34.85
2017-08-24T11:53:15.456Z,34.98
2017-08-24T11:55:43.478Z,35.78
2017-08-24T11:58:11.346Z,37.36
2017-08-24T12:00:39.021Z,36.30
2017-08-24T12:03:06.881Z,34.38
2017-08-24T12:05:34.599Z,34.79
2017-08-24T12:08:02.320Z,35.29
2017-08-24T12:10:30.262Z,36.35
2017-08-24T12:12:58.127Z,36.61
2017-08-24T12:15:25.993Z,35.76
2017-08-24T12:17:53.861Z,34.66
2017-08-24T12:20:21.728Z,35.39
2017-08-24T12:22:49.421Z,35.70
2017-08-24T12:25:17.080Z,35.76
2017-08-24T12:27:44.809Z,34.75
2017-08-24T12:30:12.817Z,36.46
2017-08-24T12:32:40.662Z,36.25
2017-08-24T12:35:08.531Z,35.46
2017-08-24T12:37:36.209Z,36.74
2017-08-24T12:40:04.045Z,35.36
2017-08-24T12:42:31.946Z,37.00
2017-08-24T12:44:59.977Z,37.53
2017-08-24T12:47:27.884Z,35.01
2017-08-24T12:49:55.813Z,34.69
2017-08-24T12:52:23.805Z,34.90
2017-08-24T12:54:51.479Z,35.02
2017-08-24T12:57:19.538Z,36.26
2017-08-24T12:59:47.406Z,35.97
2017-08-24T13:02:15.273Z,35.30
2017-08-24T13:04:43.140Z,34.67
2017-08-24T13:07:11.184Z,33.59
2017-08-24T13:09:39.075Z,33.34
2017-08-24T13:12:06.962Z,32.37
2017-08-24T13:14:34.977Z,31.92
2017-08-24T13:17:02.877Z,30.91
2017-08-24T13:19:30.744Z,30.81
2017-08-24T13:21:58.611Z,30.77
2017-08-24T13:24:26.407Z,30.70
2017-08-24T13:26:54.224Z,30.75
2017-08-24T13:29:22.235Z,30.50
2017-08-24T13:31:50.082Z,30.00
2017-08-24T13:34:17.947Z,30.03
2017-08-24T13:36:46.042Z,29.84
2017-08-24T13:39:13.704Z,29.78
2017-08-24T13:41:41.430Z,29.73
2017-08-24T13:44:09.233Z,29.55
2017-08-24T13:46:36.888Z,29.47
2017-08-24T13:49:04.725Z,29.44
2017-08-24T13:51:32.419Z,29.39
2017-08-24T13:54:00.165Z,29.20
2017-08-24T13:56:28.104Z,29.10
2017-08-24T13:58:56.072Z,29.14
2017-08-24T14:01:23.892Z,29.24
2017-08-24T14:03:51.730Z,29.32
2017-08-24T14:06:19.624Z,29.39
2017-08-24T14:08:47.286Z,29.37
2017-08-24T14:11:15.132Z,29.40
2017-08-24T14:13:43.000Z,29.12
2017-08-24T14:16:10.693Z,29.12
2017-08-24T14:18:38.411Z,29.07
2017-08-24T14:21:06.418Z,28.94
2017-08-24T14:23:34.016Z,28.94
2017-08-24T14:26:01.862Z,29.01
2017-08-24T14:28:29.753Z,28.63
2017-08-24T14:30:57.573Z,28.44
2017-08-24T14:33:25.388Z,28.41
2017-08-24T14:35:53.255Z,28.44
2017-08-24T14:38:21.123Z,28.65
2017-08-24T14:40:48.943Z,28.71
2017-08-24T14:43:16.981Z,28.63
2017-08-24T14:45:44.622Z,28.54
2017-08-24T14:48:12.338Z,28.51
2017-08-24T14:50:40.332Z,28.40
2017-08-24T14:53:08.067Z,28.40
2017-08-24T14:55:35.940Z,28.39
2017-08-24T14:58:03.934Z,28.33
2017-08-24T15:00:31.716Z,28.33
2017-08-24T15:02:59.536Z,28.32
2017-08-24T15:05:27.613Z,28.22
2017-08-24T15:07:55.454Z,28.24
2017-08-24T15:10:23.132Z,28.22
2017-08-24T15:12:50.774Z,28.21
2017-08-24T15:15:18.464Z,28.12
2017-08-24T15:17:46.126Z,28.10
2017-08-24T15:20:13.993Z,28.03
2017-08-24T15:22:41.703Z,28.01
2017-08-24T15:25:09.727Z,27.99
2017-08-24T15:27:37.601Z,27.88
2017-08-24T15:30:05.434Z,27.85
2017-08-24T15:32:33.329Z,27.82
2017-08-24T15:35:00.972Z,27.73
2017-08-24T15:37:28.561Z,27.68
2017-08-24T15:39:56.315Z,27.62
2017-08-24T15:42:23.981Z,27.50
2017-08-24T15:44:51.809Z,27.49
2017-08-24T15:47:19.507Z,27.37
2017-08-24T15:49:47.343Z,27.25
2017-08-24T15:52:15.085Z,27.17
2017-08-24T15:54:43.007Z,27.21
2017-08-24T15:57:10.824Z,27.18
2017-08-24T15:59:38.433Z,27.15
2017-08-24T16:02:06.298Z,27.08
2017-08-24T16:04:34.157Z,27.03
2017-08-24T16:07:01.829Z,26.97
2017-08-24T16:09:29.656Z,26.86
2017-08-24T16:11:57.526Z,26.79
2017-08-24T16:14:25.219Z,26.72
2017-08-24T16:16:53.235Z,26.59
2017-08-24T16:19:20.951Z,26.46
2017-08-24T16:21:48.771Z,26.38
2017-08-24T16:24:16.639Z,26.29
2017-08-24T16:26:44.661Z,26.19
2017-08-24T16:29:12.375Z,26.04
2017-08-24T16:31:40.396Z,25.88
2017-08-24T16:34:08.257Z,25.74
2017-08-24T16:36:36.098Z,25.56
2017-08-24T16:39:03.799Z,25.45
2017-08-24T16:41:31.755Z,25.24
2017-08-24T16:43:59.580Z,25.03
2017-08-24T16:46:27.596Z,24.79
2017-08-24T16:48:55.253Z,24.51
2017-08-24T16:51:22.919Z,24.31
2017-08-24T16:53:50.810Z,24.13
2017-08-24T16:56:18.650Z,23.82
2017-08-24T16:58:46.311Z,23.46
2017-08-24T17:01:13.966Z,23.30
2017-08-24T17:03:41.634Z,23.17
2017-08-24T17:06:09.300Z,22.99
2017-08-24T17:08:36.962Z,22.69
2017-08-24T17:11:04.670Z,22.57
2017-08-24T17:13:32.262Z,22.37
2017-08-24T17:16:00.124Z,22.28
2017-08-24T17:18:28.016Z,22.12
2017-08-24T17:20:55.747Z,21.99
2017-08-24T17:23:23.386Z,21.82
2017-08-24T17:25:51.396Z,21.57
2017-08-24T17:28:19.285Z,21.40
2017-08-24T17:30:46.885Z,21.28
2017-08-24T17:33:14.608Z,21.13
2017-08-24T17:35:42.411Z,20.99
2017-08-24T17:38:10.139Z,20.80
2017-08-24T17:40:37.803Z,20.65
2017-08-24T17:43:05.515Z,20.60
2017-08-24T17:45:33.101Z,20.53
2017-08-24T17:48:00.782Z,20.46
2017-08-24T17:50:28.492Z,20.41
2017-08-24T17:52:56.427Z,20.33
2017-08-24T17:55:24.144Z,20.11
2017-08-24T17:57:51.950Z,19.94
2017-08-24T18:00:19.783Z,19.78
2017-08-24T18:02:47.555Z,19.82
2017-08-24T18:05:15.138Z,19.75
2017-08-24T18:07:43.057Z,19.59
2017-08-24T18:10:10.827Z,19.47
2017-08-24T18:12:38.461Z,19.61
2017-08-24T18:15:06.096Z,19.46
2017-08-24T18:17:34.165Z,19.28
2017-08-24T18:20:01.828Z,19.12
2017-08-24T18:22:30.177Z,18.95
2017-08-24T18:24:57.851Z,18.78
2017-08-24T18:27:25.488Z,18.63
2017-08-24T18:29:53.456Z,18.58
2017-08-24T18:32:21.353Z,18.47
2017-08-24T18:34:49.149Z,18.38
2017-08-24T18:37:17.088Z,18.44
2017-08-24T18:39:45.031Z,18.47
2017-08-24T18:42:13.041Z,18.42
2017-08-24T18:44:40.710Z,18.32
2017-08-24T18:47:08.635Z,18.30
2017-08-24T18:49:36.596Z,18.16
2017-08-24T18:52:04.417Z,18.02
2017-08-24T18:54:32.167Z,17.82
2017-08-24T18:56:59.831Z,17.70
2017-08-24T18:59:27.489Z,17.78
2017-08-24T19:01:55.403Z,17.82
2017-08-24T19:04:23.021Z,17.72
2017-08-24T19:06:50.684Z,17.65
2017-08-24T19:09:18.376Z,17.51
2017-08-24T19:11:46.005Z,17.37
2017-08-24T19:14:13.717Z,17.21
2017-08-24T19:16:41.436Z,17.35
2017-08-24T19:19:09.202Z,17.48
2017-08-24T19:21:37.041Z,17.48
2017-08-24T19:24:05.139Z,17.57
2017-08-24T19:26:32.974Z,17.42
2017-08-24T19:29:00.677Z,17.19
2017-08-24T19:31:28.742Z,17.06
2017-08-24T19:33:56.808Z,17.01
2017-08-24T19:36:24.393Z,16.87
2017-08-24T19:38:52.042Z,16.89
2017-08-24T19:41:19.855Z,16.92
2017-08-24T19:43:47.725Z,16.82
2017-08-24T19:46:15.519Z,16.90
2017-08-24T19:48:43.192Z,16.77
2017-08-24T19:51:10.856Z,16.58
2017-08-24T19:53:38.912Z,16.48
2017-08-24T19:56:06.591Z,16.37
2017-08-24T19:58:34.522Z,16.21
2017-08-24T20:01:02.288Z,16.20
2017-08-24T20:03:30.151Z,16.06
2017-08-24T20:05:58.017Z,15.88
2017-08-24T20:08:25.889Z,15.96
2017-08-24T20:10:53.711Z,15.81
2017-08-24T20:13:21.449Z,15.97
2017-08-24T20:15:50.186Z,16.02
2017-08-24T20:18:17.784Z,15.94
2017-08-24T20:20:46.479Z,15.86
2017-08-24T20:23:14.557Z,15.86
2017-08-24T20:25:42.211Z,15.70
2017-08-24T20:28:09.877Z,15.70
2017-08-24T20:30:37.511Z,15.73
2017-08-24T20:33:05.122Z,15.60
2017-08-24T20:35:32.724Z,15.59
2017-08-24T20:38:00.530Z,15.62
2017-08-24T20:40:28.260Z,15.65
2017-08-24T20:42:56.224Z,15.52
2017-08-24T20:45:23.965Z,15.62
2017-08-24T20:47:51.592Z,15.46
2017-08-24T20:50:19.252Z,15.44
2017-08-24T20:52:47.035Z,15.39
2017-08-24T20:55:14.649Z,15.56
2017-08-24T20:57:42.241Z,15.53
2017-08-24T21:00:09.880Z,15.31
2017-08-24T21:02:37.563Z,15.12
2017-08-24T21:05:05.275Z,14.96
2017-08-24T21:07:33.300Z,14.85
2017-08-24T21:10:01.168Z,14.81
2017-08-24T21:12:28.814Z,14.76
2017-08-24T21:14:56.684Z,14.70
2017-08-24T21:17:24.410Z,14.63
2017-08-24T21:19:52.220Z,14.64
2017-08-24T21:22:20.079Z,14.63
2017-08-24T21:24:47.750Z,14.57
2017-08-24T21:27:15.454Z,14.65
2017-08-24T21:29:43.476Z,14.56
2017-08-24T21:32:11.151Z,14.43
2017-08-24T21:34:38.979Z,14.18
2017-08-24T21:37:07.082Z,14.24
2017-08-24T21:39:34.913Z,14.43
2017-08-24T21:42:02.614Z,14.22
2017-08-24T21:44:30.273Z,14.19
2017-08-24T21:46:57.939Z,14.06
2017-08-24T21:49:25.593Z,13.97
2017-08-24T21:51:53.470Z,13.84
2017-08-24T21:54:21.263Z,13.75
2017-08-24T21:56:49.197Z,13.76
2017-08-24T21:59:16.864Z,13.83
2017-08-24T22:01:44.490Z,13.81
2017-08-24T22:04:12.200Z,13.72
2017-08-24T22:06:40.050Z,13.61
2017-08-24T22:09:07.704Z,13.55
2017-08-24T22:11:35.688Z,13.59
2017-08-24T22:14:03.622Z,13.65
2017-08-24T22:16:31.308Z,13.73
2017-08-24T22:18:58.982Z,13.74
2017-08-24T22:21:27.049Z,13.64
2017-08-24T22:23:54.766Z,13.64
2017-08-24T22:26:22.404Z,13.74
2017-08-24T22:28:50.400Z,14.16
2017-08-24T22:31:18.096Z,14.34
2017-08-24T22:33:46.179Z,14.16
2017-08-24T22:36:14.255Z,13.87
2017-08-24T22:38:42.560Z,13.67
2017-08-24T22:41:10.155Z,13.55
2017-08-24T22:43:39.750Z,13.49
2017-08-24T22:46:07.548Z,13.50
2017-08-24T22:48:35.150Z,13.41
2017-08-24T22:51:03.095Z,13.62
2017-08-24T22:53:36.286Z,13.41
2017-08-24T22:56:09.473Z,13.20
2017-08-24T22:58:42.875Z,13.06
2017-08-24T23:01:16.426Z,12.93
2017-08-24T23:03:49.876Z,13.03
2017-08-24T23:06:17.743Z,13.09
2017-08-24T23:08:45.448Z,13.43
2017-08-24T23:11:13.460Z,13.35
2017-08-24T23:13:41.528Z,13.20
2017-08-24T23:16:09.370Z,13.20
2017-08-24T23:18:37.074Z,13.18
2017-08-24T23:21:05.005Z,13.13
2017-08-24T23:23:32.994Z,13.07
2017-08-24T23:26:00.790Z,13.09
2017-08-24T23:28:28.631Z,13.03
2017-08-24T23:30:56.278Z,12.97
2017-08-24T23:33:24.258Z,12.98
2017-08-24T23:35:52.330Z,13.02
2017-08-24T23:38:20.122Z,13.01
2017-08-24T23:40:48.081Z,12.96
2017-08-24T23:43:15.948Z,13.03
2017-08-24T23:45:43.727Z,13.02
2017-08-24T23:48:11.472Z,13.04
2017-08-24T23:50:39.409Z,13.05
2017-08-24T23:53:07.431Z,13.00
2017-08-24T23:55:35.165Z,12.92
2017-08-24T23:58:03.151Z,12.83
